Time;durP1;ratioP1;P1;durP2;ratioP2;P2;SDS_P1;SDS_P2;PMS_P1;PMS_P2;Temp;Humidity;BMP_temperature;BMP_pressure;BME280_temperature;BME280_humidity;BME280_pressure;Samples;Min_cycle;Max_cycle;Signal;HPM_P1;HPM_P2
2021/03/27 00:01:41;;;;;;;47.83;29.05;;;;;;;2.79;62.76;94636.44;6109955;23;20065;-79
2021/03/27 00:04:25;;;;;;;33.22;20.45;;;;;;;2.77;61.99;94633.28;6104712;23;20101;-79
2021/03/27 00:07:11;;;;;;;33.72;19.27;;;;;;;2.70;61.99;94637.75;6106858;23;20089;-80
2021/03/27 00:09:36;;;;;;;;;;;;;;;2.67;62.18;94632.19;6108880;23;20033;-79
2021/03/27 00:12:43;;;;;;;35.50;18.85;;;;;;;2.47;62.92;94627.22;6104111;23;19913;-80
2021/03/27 00:15:16;;;;;;;38.08;19.55;;;;;;;2.51;62.80;94633.56;6106921;23;20010;-80
2021/03/27 00:17:48;;;;;;;34.08;20.33;;;;;;;2.50;62.86;94637.19;6104966;23;20028;-80
2021/03/27 00:20:23;;;;;;;37.00;24.17;;;;;;;2.49;63.03;94630.41;6087094;23;20364;-79
2021/03/27 00:23:02;;;;;;;31.88;19.40;;;;;;;2.54;62.70;94627.94;6090696;23;20009;-80
2021/03/27 00:25:30;;;;;;;28.65;17.88;;;;;;;2.46;62.31;94628.22;6076451;23;20117;-80
2021/03/27 00:28:04;;;;;;;27.65;18.60;;;;;;;2.39;62.76;94620.47;6074743;23;20106;-79
2021/03/27 00:30:40;;;;;;;28.05;17.05;;;;;;;2.32;62.78;94614.53;6075885;23;20030;-80
2021/03/27 00:33:06;;;;;;;29.20;19.70;;;;;;;2.28;62.68;94612.56;6079160;23;20010;-80
2021/03/27 00:35:31;;;;;;;30.20;17.92;;;;;;;2.35;62.89;94628.94;6078594;23;20133;-80
2021/03/27 00:38:01;;;;;;;33.63;17.90;;;;;;;2.35;62.73;94618.50;6080926;23;20060;-80
2021/03/27 00:40:30;;;;;;;34.30;20.60;;;;;;;2.36;62.86;94625.31;6109334;23;20104;-79
2021/03/27 00:43:07;;;;;;;30.83;19.63;;;;;;;2.29;62.32;94601.94;6066084;23;20019;-80
2021/03/27 00:45:41;;;;;;;39.70;22.17;;;;;;;2.27;61.93;94605.75;6099074;23;20040;-79
2021/03/27 00:48:16;;;;;;;28.48;19.08;;;;;;;2.40;62.11;94623.88;6106163;23;20101;-79
2021/03/27 00:50:47;;;;;;;31.88;18.95;;;;;;;2.45;61.89;94618.78;6102649;23;20018;-80
2021/03/27 00:53:24;;;;;;;32.67;19.42;;;;;;;2.39;61.79;94614.47;6101470;23;20026;-79
2021/03/27 00:56:19;;;;;;;32.35;19.35;;;;;;;2.33;62.03;94604.91;6078271;23;20014;-79
2021/03/27 00:58:51;;;;;;;37.83;20.00;;;;;;;2.33;62.17;94607.50;6067942;23;20017;-80
2021/03/27 01:01:19;;;;;;;33.38;21.70;;;;;;;2.30;62.16;94602.72;6082928;23;20028;-80
2021/03/27 01:03:55;;;;;;;33.97;20.95;;;;;;;2.36;62.18;94610.47;6104080;23;20048;-80
2021/03/27 01:06:46;;;;;;;34.55;20.17;;;;;;;2.35;62.00;94613.28;6107796;23;20715;-80
2021/03/27 01:09:17;;;;;;;39.17;19.88;;;;;;;2.27;61.91;94593.53;6108726;23;20014;-80
2021/03/27 01:11:49;;;;;;;31.10;19.88;;;;;;;2.36;61.76;94614.88;6089730;23;20420;-79
2021/03/27 01:14:21;;;;;;;30.58;19.08;;;;;;;2.28;61.76;94605.56;6093300;23;20420;-79
2021/03/27 01:16:53;;;;;;;31.50;18.27;;;;;;;2.16;61.92;94600.25;6107245;23;20037;-80
2021/03/27 01:19:41;;;;;;;34.30;20.13;;;;;;;2.28;62.25;94615.19;6110823;23;20008;-79
2021/03/27 01:22:09;;;;;;;28.35;18.50;;;;;;;2.15;62.30;94606.47;6109886;23;20053;-80
2021/03/27 01:24:35;;;;;;;31.88;19.77;;;;;;;2.12;62.41;94606.91;6109539;23;20026;-79
2021/03/27 01:27:23;;;;;;;29.77;19.77;;;;;;;2.18;62.70;94619.09;6104783;23;20022;-80
2021/03/27 01:29:58;;;;;;;35.55;20.50;;;;;;;2.26;62.79;94627.63;6107271;23;20018;-80
2021/03/27 01:32:27;;;;;;;35.40;21.83;;;;;;;2.22;62.99;94621.25;6109685;23;20014;-80
2021/03/27 01:35:06;;;;;;;34.22;19.40;;;;;;;2.24;62.76;94612.22;6111849;23;20022;-80
2021/03/27 01:37:49;;;;;;;27.95;18.88;;;;;;;2.19;62.74;94612.06;6110901;23;20065;-80
2021/03/27 01:40:33;;;;;;;34.80;21.60;;;;;;;2.20;62.69;94615.47;6110017;23;20026;-80
2021/03/27 01:43:01;;;;;;;29.70;19.02;;;;;;;2.22;63.08;94618.66;6106434;23;20018;-80
2021/03/27 01:45:56;;;;;;;32.20;19.75;;;;;;;2.16;62.85;94608.06;6076368;23;20101;-80
2021/03/27 01:48:33;;;;;;;32.85;21.33;;;;;;;2.25;63.14;94618.25;6106457;23;20045;-80
2021/03/27 01:51:06;;;;;;;35.80;19.08;;;;;;;2.15;63.20;94609.06;6107570;23;20014;-79
2021/03/27 01:54:00;;;;;;;34.45;21.17;;;;;;;2.17;63.57;94611.47;6109412;23;20109;-80
2021/03/27 01:56:49;;;;;;;31.88;20.02;;;;;;;2.13;63.55;94611.13;6100919;23;20458;-80
2021/03/27 01:59:23;;;;;;;31.63;20.85;;;;;;;2.12;63.21;94599.09;6081591;23;20025;-80
2021/03/27 02:01:51;;;;;;;42.63;23.40;;;;;;;2.04;63.51;94617.63;6084214;23;20384;-80
2021/03/27 02:04:26;;;;;;;33.10;20.38;;;;;;;2.17;63.69;94622.72;6111512;23;20100;-80
2021/03/27 02:07:17;;;;;;;37.10;22.73;;;;;;;2.01;63.74;94619.84;6110337;23;20018;-80
2021/03/27 02:09:58;;;;;;;38.47;23.90;;;;;;;2.12;64.13;94614.75;6083555;23;20028;-80
2021/03/27 02:12:44;;;;;;;49.45;29.20;;;;;;;2.15;64.53;94624.72;6110142;23;20096;-80
2021/03/27 02:15:17;;;;;;;34.58;22.77;;;;;;;1.99;64.32;94616.69;6074351;23;20027;-80
2021/03/27 02:17:45;;;;;;;43.85;26.15;;;;;;;1.89;64.81;94625.00;6102497;23;20021;-80
2021/03/27 02:20:33;;;;;;;44.38;27.95;;;;;;;1.97;65.33;94632.53;6086195;23;20021;-80
2021/03/27 02:23:24;;;;;;;56.33;29.30;;;;;;;1.87;65.34;94610.56;6065221;23;20469;-80
2021/03/27 02:26:09;;;;;;;47.65;28.42;;;;;;;1.95;65.51;94644.19;6083605;23;20363;-80
2021/03/27 02:28:58;;;;;;;58.42;30.60;;;;;;;1.96;65.91;94641.34;6085858;23;20010;-80
2021/03/27 02:31:42;;;;;;;48.67;28.98;;;;;;;1.93;65.97;94641.81;6081993;23;20155;-81
2021/03/27 02:34:23;;;;;;;55.88;29.33;;;;;;;1.75;66.68;94631.34;6079810;23;20551;-81
2021/03/27 02:37:29;;;;;;;56.88;32.00;;;;;;;1.76;66.90;94632.91;6082543;23;20164;-80
2021/03/27 02:43:25;;;;;;;56.60;34.70;;;;;;;1.81;67.68;94634.91;6106572;23;20357;-80
2021/03/27 02:46:11;;;;;;;85.55;49.17;;;;;;;1.68;68.98;94639.19;6108461;23;20021;-80
2021/03/27 02:48:57;;;;;;;113.97;61.60;;;;;;;1.78;68.80;94640.53;6070745;23;20028;-80
2021/03/27 02:51:29;;;;;;;82.35;47.58;;;;;;;1.60;69.34;94642.09;6083423;23;20030;-80
2021/03/27 02:54:10;;;;;;;50.95;30.20;;;;;;;1.76;67.75;94639.97;6108006;23;20022;-81
2021/03/27 02:56:51;;;;;;;45.58;28.52;;;;;;;1.55;68.38;94648.94;6082294;23;20165;-80
2021/03/27 02:59:52;;;;;;;38.00;22.30;;;;;;;1.70;67.48;94641.59;6108536;23;20029;-81
2021/03/27 03:02:25;;;;;;;50.80;30.02;;;;;;;1.36;67.82;94613.41;6061823;23;20026;-80
2021/03/27 03:05:06;;;;;;;51.40;28.23;;;;;;;1.72;67.69;94644.78;6111275;23;20006;-81
2021/03/27 03:08:13;;;;;;;49.95;29.65;;;;;;;1.55;67.83;94648.94;6086851;23;20014;-80
2021/03/27 03:10:46;;;;;;;60.00;35.40;;;;;;;1.44;68.73;94642.59;6044762;23;20515;-81
2021/03/27 03:13:17;;;;;;;49.55;29.35;;;;;;;1.61;68.13;94648.88;6107600;23;20014;-80
2021/03/27 03:15:55;;;;;;;49.10;31.05;;;;;;;1.57;67.68;94652.09;6108673;23;20033;-80
2021/03/27 03:18:46;;;;;;;44.60;27.40;;;;;;;1.55;67.47;94648.94;6110239;23;20025;-80
2021/03/27 03:21:22;;;;;;;37.00;23.67;;;;;;;1.56;67.14;94651.34;6081704;23;20022;-79
2021/03/27 03:23:58;;;;;;;33.17;22.00;;;;;;;1.45;67.73;94659.03;6080265;23;20026;-80
2021/03/27 03:26:40;;;;;;;37.83;24.20;;;;;;;1.50;67.72;94646.97;6108203;23;20022;-81
2021/03/27 03:29:14;;;;;;;33.72;21.20;;;;;;;1.44;67.50;94647.81;6106525;23;20026;-81
2021/03/27 03:32:04;;;;;;;37.00;22.27;;;;;;;1.22;68.10;94636.94;6112405;23;20030;-81
2021/03/27 03:34:44;;;;;;;44.33;27.08;;;;;;;1.40;68.59;94661.47;6104768;23;20048;-81
2021/03/27 03:37:51;;;;;;;39.90;24.00;;;;;;;1.42;67.74;94662.06;6108739;23;20132;-81
2021/03/27 03:40:48;;;;;;;53.10;32.80;;;;;;;1.21;68.65;94668.41;6110981;23;20457;-80
2021/03/27 03:43:28;;;;;;;67.38;42.33;;;;;;;1.29;69.98;94657.72;6095584;23;20056;-80
2021/03/27 03:46:25;;;;;;;79.78;48.65;;;;;;;1.44;70.34;94662.63;6108305;23;20424;-80
2021/03/27 03:49:14;;;;;;;68.05;40.63;;;;;;;1.38;70.31;94666.88;6105835;23;20380;-81
2021/03/27 03:51:46;;;;;;;75.68;44.22;;;;;;;1.11;70.79;94655.03;6085474;23;20026;-80
2021/03/27 03:54:21;;;;;;;77.72;41.83;;;;;;;1.30;71.12;94674.94;6075675;23;20029;-80
2021/03/27 03:57:16;;;;;;;62.72;32.28;;;;;;;1.21;70.41;94673.59;6065958;23;20026;-80
2021/03/27 04:00:04;;;;;;;51.97;31.73;;;;;;;1.27;70.35;94672.78;6079133;23;20401;-81
2021/03/27 04:02:37;;;;;;;44.30;25.10;;;;;;;1.20;69.42;94678.00;6078978;23;20579;-83
2021/03/27 04:05:36;;;;;;;48.13;28.83;;;;;;;1.32;69.09;94669.53;6080449;23;20017;-80
2021/03/27 04:08:29;;;;;;;45.92;27.50;;;;;;;1.17;69.73;94678.41;6049409;23;20449;-81
2021/03/27 04:11:02;;;;;;;95.70;50.72;;;;;;;1.20;70.51;94666.78;6079876;23;19998;-81
2021/03/27 04:13:49;;;;;;;87.50;44.55;;;;;;;1.15;70.98;94675.22;6080709;23;20018;-82
2021/03/27 04:16:17;;;;;;;87.10;44.17;;;;;;;1.16;71.76;94666.44;6102414;23;20021;-81
2021/03/27 04:18:51;;;;;;;56.92;33.90;;;;;;;1.27;70.46;94664.97;6110739;23;20110;-80
2021/03/27 04:21:50;;;;;;;53.08;30.80;;;;;;;1.19;70.66;94679.00;6076683;23;20015;-80
2021/03/27 04:24:28;;;;;;;37.33;22.27;;;;;;;1.16;70.09;94663.81;6079560;23;20457;-81
2021/03/27 04:26:58;;;;;;;35.13;20.52;;;;;;;1.47;68.29;94675.22;6079072;23;20018;-80
2021/03/27 04:29:47;;;;;;;36.28;21.65;;;;;;;1.62;67.86;94681.72;6076728;23;20018;-81
2021/03/27 04:32:18;;;;;;;48.83;29.40;;;;;;;1.88;67.29;94688.56;6077374;23;20513;-81
2021/03/27 04:34:52;;;;;;;51.78;30.55;;;;;;;2.15;66.63;94695.13;6082384;23;20639;-81
2021/03/27 04:37:43;;;;;;;61.10;33.63;;;;;;;2.43;66.05;94684.25;6080638;23;20461;-80
2021/03/27 04:40:24;;;;;;;57.42;33.15;;;;;;;2.86;64.29;94689.38;6077173;23;20022;-80
2021/03/27 04:43:12;;;;;;;68.45;37.17;;;;;;;3.22;63.42;94704.22;6079228;23;20461;-81
2021/03/27 04:45:41;;;;;;;64.63;38.90;;;;;;;3.64;62.17;94691.97;6098862;23;20153;-81
2021/03/27 04:48:16;;;;;;;69.80;38.70;;;;;;;4.20;60.57;94701.16;6106210;23;20069;-80
2021/03/27 04:51:19;;;;;;;68.00;39.80;;;;;;;4.32;60.65;94694.91;6106041;23;20029;-81
2021/03/27 04:53:56;;;;;;;66.57;42.30;;;;;;;5.12;57.58;94699.47;6103413;23;20014;-80
2021/03/27 04:56:49;;;;;;;60.60;35.33;;;;;;;5.45;56.77;94699.56;6101242;23;20088;-81
2021/03/27 04:59:48;;;;;;;63.33;40.95;;;;;;;5.63;55.36;94696.72;6098549;23;20022;-81
2021/03/27 05:02:18;;;;;;;61.72;37.67;;;;;;;5.90;54.93;94690.94;6075833;23;20029;-81
2021/03/27 05:05:33;;;;;;;63.28;38.67;;;;;;;6.81;52.88;94703.56;6080707;23;20033;-80
2021/03/27 05:08:08;;;;;;;71.22;41.28;;;;;;;7.59;50.23;94706.84;6072834;23;20029;-81
2021/03/27 05:10:53;;;;;;;61.70;39.83;;;;;;;8.15;48.99;94714.25;6079993;23;20089;-81
2021/03/27 05:13:48;;;;;;;56.58;37.63;;;;;;;8.60;46.36;94705.13;6077736;23;20023;-81
2021/03/27 05:16:19;;;;;;;58.35;38.22;;;;;;;9.24;45.28;94702.28;6107595;23;20041;-81
2021/03/27 05:18:47;;;;;;;62.33;39.95;;;;;;;9.85;44.16;94706.72;6110687;23;20029;-81
2021/03/27 05:21:39;;;;;;;61.90;42.53;;;;;;;10.20;43.00;94699.91;6088011;23;20125;-81
2021/03/27 05:24:11;;;;;;;58.60;38.80;;;;;;;10.84;41.67;94698.28;6091734;23;20022;-81
2021/03/27 05:27:06;;;;;;;52.97;35.20;;;;;;;11.55;39.87;94698.03;6109396;23;20022;-81
2021/03/27 05:29:48;;;;;;;54.17;38.67;;;;;;;11.82;39.26;94694.22;6108126;23;20053;-81
2021/03/27 05:32:42;;;;;;;53.65;39.42;;;;;;;12.42;37.69;94701.72;6100323;23;20022;-81
2021/03/27 05:35:20;;;;;;;48.15;36.00;;;;;;;13.22;36.07;94702.06;6069378;23;20028;-81
2021/03/27 05:38:07;;;;;;;56.85;37.28;;;;;;;12.92;36.53;94702.34;6105567;23;20041;-82
2021/03/27 05:41:10;;;;;;;58.53;37.17;;;;;;;13.22;36.21;94704.72;6104165;23;20206;-81
2021/03/27 05:43:49;;;;;;;52.63;35.75;;;;;;;13.18;36.01;94698.41;6108759;23;20132;-80
2021/03/27 05:46:53;;;;;;;50.03;36.38;;;;;;;13.86;34.89;94703.41;6106939;23;20014;-80
2021/03/27 05:49:40;;;;;;;57.35;37.65;;;;;;;14.08;34.35;94700.16;6105925;23;20469;-80
2021/03/27 05:52:35;;;;;;;55.45;38.25;;;;;;;14.77;33.34;94696.72;6106735;23;20022;-81
2021/03/27 05:55:13;;;;;;;54.90;40.38;;;;;;;14.33;33.93;94705.91;6106709;23;20461;-81
2021/03/27 05:58:04;;;;;;;60.60;43.05;;;;;;;14.52;33.98;94700.56;6106505;23;20018;-81
2021/03/27 06:00:54;;;;;;;65.40;44.15;;;;;;;14.92;33.55;94706.28;6107227;23;20112;-80
2021/03/27 06:03:43;;;;;;;76.53;48.55;;;;;;;15.18;33.30;94708.22;6105443;23;20025;-80
2021/03/27 06:06:18;;;;;;;76.10;47.13;;;;;;;16.29;31.83;94701.69;6106581;23;20475;-81
2021/03/27 06:08:55;;;;;;;78.97;49.42;;;;;;;16.54;31.41;94710.97;6110441;23;20026;-81
2021/03/27 06:11:41;;;;;;;68.35;47.60;;;;;;;17.11;29.97;94706.63;6106339;23;20052;-82
2021/03/27 06:14:35;;;;;;;64.85;42.70;;;;;;;17.36;29.89;94719.31;6106765;23;20120;-81
2021/03/27 06:17:28;;;;;;;59.60;42.45;;;;;;;18.31;28.37;94704.31;6082221;23;20042;-81
2021/03/27 06:20:11;;;;;;;61.22;40.50;;;;;;;17.97;28.07;94712.31;6083838;23;20073;-81
2021/03/27 06:23:01;;;;;;;67.50;43.05;;;;;;;17.29;28.84;94694.94;6085551;23;20016;-82
2021/03/27 06:25:29;;;;;;;62.53;43.45;;;;;;;18.03;29.83;94711.06;6082390;23;20341;-82
2021/03/27 06:28:16;;;;;;;56.90;42.50;;;;;;;18.72;27.87;94708.41;6107496;23;20453;-82
2021/03/27 06:31:08;;;;;;;59.78;43.20;;;;;;;19.75;26.36;94708.13;6108712;23;20022;-82
2021/03/27 06:33:43;;;;;;;53.22;38.85;;;;;;;20.63;24.89;94705.31;6106791;23;20025;-81
2021/03/27 06:36:25;;;;;;;57.75;44.60;;;;;;;19.75;25.73;94708.13;6110159;23;20022;-81
2021/03/27 06:39:15;;;;;;;60.10;41.50;;;;;;;20.87;25.15;94704.63;6066053;23;20141;-82
2021/03/27 06:42:33;;;;;;;54.50;42.30;;;;;;;21.32;24.40;94715.41;6101795;23;20042;-81
2021/03/27 06:45:32;;;;;;;58.70;42.75;;;;;;;21.89;23.27;94718.06;6056993;23;20169;-81
2021/03/27 06:48:13;;;;;;;58.45;42.35;;;;;;;22.35;23.08;94712.19;6082367;23;20032;-83
2021/03/27 06:51:35;;;;;;;58.47;42.83;;;;;;;21.88;23.03;94709.19;6104676;23;20061;-82
2021/03/27 06:54:27;;;;;;;57.35;44.30;;;;;;;22.84;22.51;94710.16;5988655;23;20020;-81
2021/03/27 06:57:21;;;;;;;51.63;40.35;;;;;;;23.22;21.66;94708.81;5985529;23;20016;-81
2021/03/27 07:00:12;;;;;;;54.70;41.67;;;;;;;23.40;21.59;94693.91;6076979;23;20089;-81
2021/03/27 07:02:56;;;;;;;54.90;39.53;;;;;;;22.89;22.19;94706.41;6106694;23;20014;-81
2021/03/27 07:05:39;;;;;;;50.73;40.60;;;;;;;23.72;22.20;94708.19;6102037;23;20022;-81
2021/03/27 07:08:11;;;;;;;55.47;40.53;;;;;;;23.25;20.95;94721.63;6104967;23;20057;-81
2021/03/27 07:11:10;;;;;;;46.80;37.13;;;;;;;23.69;21.74;94700.81;6107538;23;20012;-81
2021/03/27 07:13:38;;;;;;;43.00;33.70;;;;;;;24.74;19.31;94715.13;6101787;23;20018;-81
2021/03/27 07:16:28;;;;;;;41.80;34.10;;;;;;;24.55;20.05;94713.19;6103941;23;20074;-81
2021/03/27 07:19:13;;;;;;;41.05;33.92;;;;;;;25.22;19.08;94688.63;6100165;23;20018;-81
2021/03/27 07:21:54;;;;;;;40.47;31.35;;;;;;;26.14;18.16;94718.06;6101145;23;20459;-81
2021/03/27 07:24:30;;;;;;;39.67;31.33;;;;;;;25.55;18.61;94712.44;6076544;23;20282;-80
2021/03/27 07:27:33;;;;;;;39.33;33.25;;;;;;;25.14;18.90;94712.06;6074484;23;20030;-81
2021/03/27 07:30:14;;;;;;;45.85;32.50;;;;;;;25.64;18.46;94721.09;6074005;23;20590;-81
2021/03/27 07:32:50;;;;;;;41.75;34.13;;;;;;;25.36;19.45;94716.72;6099693;23;20022;-82
2021/03/27 07:35:56;;;;;;;38.30;33.15;;;;;;;26.26;18.20;94719.78;6100069;23;20481;-81
2021/03/27 07:38:39;;;;;;;39.00;32.78;;;;;;;26.42;18.17;94716.91;6101019;23;20022;-81
2021/03/27 07:41:56;;;;;;;39.50;31.50;;;;;;;26.81;17.48;94725.56;6075235;23;20021;-81
2021/03/27 07:44:37;;;;;;;37.92;30.17;;;;;;;26.68;17.31;94725.03;6074019;23;20854;-81
2021/03/27 07:47:27;;;;;;;32.35;28.75;;;;;;;26.11;17.57;94729.59;6074557;23;20397;-82
2021/03/27 07:50:23;;;;;;;36.30;27.30;;;;;;;25.26;18.07;94717.34;6101362;23;19997;-81
2021/03/27 07:53:12;;;;;;;34.65;28.42;;;;;;;25.54;18.40;94727.09;6103393;23;20005;-81
2021/03/27 07:56:05;;;;;;;35.72;28.75;;;;;;;25.02;18.66;94707.59;6105157;23;19998;-81
2021/03/27 07:58:42;;;;;;;31.45;24.15;;;;;;;25.95;17.71;94717.38;6102236;23;20065;-81
2021/03/27 08:01:26;;;;;;;31.45;24.25;;;;;;;26.78;17.24;94718.94;6104378;23;20535;-82
2021/03/27 08:04:40;;;;;;;31.23;23.75;;;;;;;27.28;17.42;94695.09;6103230;23;20014;-83
2021/03/27 08:07:23;;;;;;;26.95;23.17;;;;;;;27.70;16.47;94714.56;6097012;23;20022;-82
2021/03/27 08:10:16;;;;;;;22.45;18.75;;;;;;;28.28;15.81;94711.94;6086963;23;20024;-83
2021/03/27 08:13:03;;;;;;;21.27;17.98;;;;;;;28.81;16.07;94712.25;6104727;23;20089;-82
2021/03/27 08:16:07;;;;;;;22.08;18.05;;;;;;;28.85;15.91;94714.97;6074450;23;20125;-87
2021/03/27 08:18:58;;;;;;;20.95;17.92;;;;;;;28.75;15.94;94707.53;6105970;23;20093;-82
2021/03/27 08:21:33;;;;;;;24.27;18.20;;;;;;;28.27;15.86;94704.13;6101494;23;20021;-82
2021/03/27 08:24:01;;;;;;;20.70;16.48;;;;;;;28.68;15.54;94708.28;6074924;23;20353;-82
2021/03/27 08:26:44;;;;;;;18.27;15.18;;;;;;;29.22;15.64;94710.03;6076534;23;20019;-82
2021/03/27 08:29:44;;;;;;;19.80;16.30;;;;;;;30.27;14.68;94707.84;6090001;23;20044;-83
2021/03/27 08:32:30;;;;;;;18.70;15.07;;;;;;;29.93;14.57;94699.31;6104201;23;20014;-82
2021/03/27 08:35:32;;;;;;;18.48;16.58;;;;;;;29.18;14.83;94711.19;6080349;23;20286;-81
2021/03/27 08:38:32;;;;;;;21.42;17.88;;;;;;;29.23;15.07;94706.16;6099606;23;20006;-81
2021/03/27 08:41:19;;;;;;;22.00;17.73;;;;;;;29.53;14.87;94711.31;6099320;23;20437;-82
2021/03/27 08:44:06;;;;;;;24.80;17.30;;;;;;;28.80;14.98;94713.41;6101349;23;20037;-81
2021/03/27 08:46:42;;;;;;;21.33;16.25;;;;;;;28.46;15.40;94701.16;6103526;23;19998;-82
2021/03/27 08:49:31;;;;;;;24.00;18.95;;;;;;;30.30;14.48;94714.47;6102753;23;20420;-82
2021/03/27 08:52:26;;;;;;;25.95;18.45;;;;;;;29.48;14.65;94695.34;6075788;23;20108;-81
2021/03/27 08:55:13;;;;;;;25.90;18.38;;;;;;;31.33;14.57;94685.66;6098948;23;20094;-83
2021/03/27 08:58:03;;;;;;;25.30;18.60;;;;;;;31.57;13.57;94705.09;6072377;23;20038;-82
2021/03/27 09:00:46;;;;;;;20.15;17.92;;;;;;;32.28;12.97;94705.31;6102299;23;20017;-80
2021/03/27 09:03:24;;;;;;;28.17;18.58;;;;;;;31.88;13.37;94704.06;6098124;23;20468;-81
2021/03/27 09:06:33;;;;;;;20.70;18.00;;;;;;;31.47;13.13;94700.44;6098882;23;20030;-82
2021/03/27 09:09:41;;;;;;;22.75;18.95;;;;;;;31.35;13.96;94709.88;6103672;23;20028;-83
2021/03/27 09:12:21;;;;;;;24.55;21.73;;;;;;;30.41;13.86;94710.53;6103441;23;20060;-83
2021/03/27 09:15:10;;;;;;;24.52;20.65;;;;;;;31.78;13.24;94710.38;6102940;23;20022;-82
2021/03/27 09:17:53;;;;;;;26.45;19.33;;;;;;;33.15;13.80;94706.72;6078882;23;20017;-83
2021/03/27 09:20:47;;;;;;;27.50;22.45;;;;;;;34.15;12.30;94695.91;6099459;23;20409;-82
2021/03/27 09:23:27;;;;;;;26.10;21.33;;;;;;;33.53;13.00;94705.44;6104393;23;20024;-83
2021/03/27 09:26:33;;;;;;;24.08;20.27;;;;;;;34.82;11.87;94699.47;6099799;23;20492;-83
2021/03/27 09:29:20;;;;;;;23.75;19.92;;;;;;;34.36;11.71;94699.09;6107533;23;20005;-83
2021/03/27 09:32:05;;;;;;;26.33;20.67;;;;;;;33.24;12.31;94696.06;6075316;23;19998;-82
2021/03/27 09:34:40;;;;;;;25.13;21.25;;;;;;;32.85;13.34;94691.84;6105302;23;20126;-84
2021/03/27 09:37:28;;;;;;;59.10;33.40;;;;;;;32.57;13.33;94678.44;6098208;23;20018;-83
2021/03/27 09:40:17;;;;;;;23.98;21.38;;;;;;;33.19;12.95;94700.03;6032312;23;20019;-83
2021/03/27 09:43:39;;;;;;;25.60;22.40;;;;;;;33.48;13.15;94697.69;6084437;23;20034;-84
2021/03/27 09:46:25;;;;;;;26.60;20.85;;;;;;;32.25;13.42;94695.94;6015470;23;20463;-83
2021/03/27 09:49:10;;;;;;;30.20;26.13;;;;;;;32.60;13.59;94697.56;6092609;23;20022;-83
2021/03/27 09:52:02;;;;;;;32.47;23.70;;;;;;;33.08;13.51;94697.44;6079454;23;20049;-83
2021/03/27 09:54:40;;;;;;;27.77;22.83;;;;;;;33.02;13.48;94701.03;6075546;23;20033;-83
2021/03/27 09:57:15;;;;;;;29.60;23.10;;;;;;;32.64;13.83;94694.84;6088603;23;20104;-83
2021/03/27 09:59:53;;;;;;;31.38;23.35;;;;;;;30.94;14.33;94691.31;6101371;23;20071;-83
2021/03/27 10:02:35;;;;;;;35.10;26.08;;;;;;;30.92;14.80;94673.78;6103508;23;20058;-82
2021/03/27 10:05:01;;;;;;;35.63;23.60;;;;;;;30.61;15.32;94691.81;6104940;23;20006;-82
2021/03/27 10:07:35;;;;;;;27.65;23.60;;;;;;;30.55;14.73;94686.00;6077774;23;20006;-82
2021/03/27 10:10:06;;;;;;;29.02;22.98;;;;;;;29.95;14.97;94679.84;6096599;23;20018;-83
2021/03/27 10:13:02;;;;;;;31.15;24.90;;;;;;;28.26;15.72;94692.47;6105357;23;20025;-82
2021/03/27 10:15:42;;;;;;;31.40;23.25;;;;;;;28.09;16.32;94678.75;6087138;23;20881;-82
2021/03/27 10:18:30;;;;;;;28.77;24.85;;;;;;;26.95;17.78;94669.59;6095094;23;20019;-82
2021/03/27 10:21:21;;;;;;;32.30;24.30;;;;;;;25.67;18.05;94682.47;6088618;23;20025;-82
2021/03/27 10:24:01;;;;;;;35.50;26.52;;;;;;;24.45;19.93;94673.22;6101623;23;20159;-82
2021/03/27 10:26:49;;;;;;;36.15;25.13;;;;;;;23.79;20.69;94683.31;6104999;23;20341;-82
2021/03/27 10:29:43;;;;;;;31.48;25.50;;;;;;;22.86;21.23;94690.94;6104775;23;20531;-81
2021/03/27 10:32:29;;;;;;;32.65;24.80;;;;;;;22.35;21.91;94687.16;6105213;23;20457;-82
2021/03/27 10:35:22;;;;;;;33.88;24.13;;;;;;;21.90;22.24;94682.72;6104732;23;20448;-80
2021/03/27 10:38:35;;;;;;;31.92;25.15;;;;;;;21.89;21.92;94680.38;6106119;23;20033;-82
2021/03/27 10:41:17;;;;;;;32.50;23.88;;;;;;;21.53;22.29;94681.16;6063967;23;20006;-82
2021/03/27 10:43:53;;;;;;;34.25;23.77;;;;;;;21.92;23.51;94675.09;6109566;23;20345;-82
2021/03/27 10:46:23;;;;;;;33.50;24.50;;;;;;;22.01;24.44;94683.88;6103777;23;20041;-81
2021/03/27 10:48:48;;;;;;;31.23;23.20;;;;;;;21.93;22.89;94674.00;6080322;23;20378;-82
2021/03/27 10:51:24;;;;;;;32.00;23.40;;;;;;;21.61;22.83;94667.59;6075798;23;20551;-81
2021/03/27 10:54:00;;;;;;;36.95;23.63;;;;;;;21.29;23.11;94673.09;6068946;23;20064;-81
2021/03/27 10:56:56;;;;;;;35.58;23.63;;;;;;;20.42;24.02;94670.47;6055211;23;20032;-81
2021/03/27 10:59:40;;;;;;;38.92;24.13;;;;;;;20.34;22.93;94673.97;6083363;23;20029;-81
2021/03/27 11:02:24;;;;;;;35.08;23.30;;;;;;;20.37;23.80;94676.03;6075422;23;20014;-81
2021/03/27 11:05:14;;;;;;;134.45;87.93;;;;;;;20.38;24.30;94672.19;6075425;23;20002;-81
2021/03/27 11:08:07;;;;;;;34.17;24.98;;;;;;;19.76;26.02;94670.25;6076405;23;20010;-81
2021/03/27 11:11:01;;;;;;;39.55;24.10;;;;;;;19.63;25.87;94667.81;6106344;23;20131;-82
2021/03/27 11:13:41;;;;;;;38.28;24.35;;;;;;;19.51;25.70;94656.97;6101063;23;20078;-81
2021/03/27 11:16:25;;;;;;;30.73;20.30;;;;;;;18.15;25.70;94655.06;6076073;23;20029;-80
2021/03/27 11:19:16;;;;;;;28.58;18.95;;;;;;;18.10;26.56;94652.53;6092675;23;20378;-82
2021/03/27 11:21:50;;;;;;;16.52;12.50;;;;;;;18.43;26.39;94650.94;6077913;23;20014;-82
2021/03/27 11:24:41;;;;;;;23.83;12.65;;;;;;;18.62;25.45;94639.91;6086726;23;20076;-82
2021/03/27 11:27:22;;;;;;;10.65;5.60;;;;;;;18.86;23.91;94650.13;6103462;23;20697;-82
2021/03/27 11:30:07;;;;;;;26.33;17.13;;;;;;;18.91;24.61;94648.03;6091103;23;20025;-80
2021/03/27 11:32:49;;;;;;;9.85;6.03;;;;;;;18.67;23.10;94642.44;6073606;23;20025;-82
2021/03/27 11:35:14;;;;;;;16.23;8.45;;;;;;;18.68;23.63;94651.25;6075828;23;20014;-81
2021/03/27 11:38:04;;;;;;;12.68;6.38;;;;;;;18.83;23.26;94650.75;6079400;23;20139;-82
2021/03/27 11:40:39;;;;;;;11.05;5.45;;;;;;;18.68;23.08;94648.56;6054359;23;20023;-82
2021/03/27 11:43:25;;;;;;;7.57;5.93;;;;;;;18.50;22.91;94634.41;6072461;23;20903;-80
2021/03/27 11:46:03;;;;;;;14.60;8.38;;;;;;;18.55;24.28;94645.78;6071274;23;20610;-82
2021/03/27 11:49:04;;;;;;;21.55;10.77;;;;;;;18.53;23.35;94637.25;6076604;23;20060;-81
2021/03/27 11:51:41;;;;;;;7.50;5.57;;;;;;;18.45;22.09;94627.34;6041874;23;20551;-83
2021/03/27 11:54:28;;;;;;;15.38;10.75;;;;;;;18.51;24.48;94631.44;6088442;23;20107;-82
2021/03/27 11:57:02;;;;;;;16.45;12.70;;;;;;;18.57;23.95;94632.84;6088747;23;20026;-82
2021/03/27 11:59:42;;;;;;;11.27;8.80;;;;;;;18.64;24.90;94620.88;6080650;23;20563;-81
2021/03/27 12:02:29;;;;;;;7.57;6.10;;;;;;;18.66;24.43;94626.69;6096634;23;20010;-82
2021/03/27 12:05:13;;;;;;;15.65;8.45;;;;;;;18.73;22.19;94624.31;6073916;23;20587;-80
2021/03/27 12:08:08;;;;;;;40.55;20.65;;;;;;;18.47;23.98;94606.38;6075362;23;20085;-79
2021/03/27 12:10:54;;;;;;;10.98;8.55;;;;;;;18.38;23.31;94618.19;6079294;23;20018;-80
2021/03/27 12:13:50;;;;;;;65.78;41.72;;;;;;;18.26;24.26;94615.41;6076614;23;20316;-81
2021/03/27 12:16:22;;;;;;;348.67;178.63;;;;;;;18.38;24.23;94623.56;6057005;23;20831;-81
2021/03/27 12:19:08;;;;;;;196.23;99.13;;;;;;;18.29;24.13;94620.09;6104043;23;20022;-79
2021/03/27 12:21:45;;;;;;;10.82;7.18;;;;;;;18.35;24.22;94624.19;6108752;23;20036;-80
2021/03/27 12:24:11;;;;;;;10.60;6.45;;;;;;;18.04;25.68;94619.00;6102537;23;20524;-80
2021/03/27 12:26:53;;;;;;;8.35;5.95;;;;;;;18.00;25.14;94612.72;6084600;23;20084;-81
2021/03/27 12:29:42;;;;;;;8.43;5.57;;;;;;;18.11;23.96;94611.31;6102869;23;20101;-80
2021/03/27 12:32:28;;;;;;;9.50;5.68;;;;;;;18.01;23.77;94600.94;6104861;23;20153;-79
2021/03/27 12:35:13;;;;;;;6.55;5.28;;;;;;;18.12;23.04;94607.53;6106453;23;20006;-80
2021/03/27 12:38:02;;;;;;;7.93;6.65;;;;;;;18.12;23.71;94602.19;6113536;23;20005;-80
2021/03/27 12:40:34;;;;;;;6.97;4.78;;;;;;;18.27;25.16;94607.06;6103221;23;20125;-81
2021/03/27 12:43:17;;;;;;;11.82;6.03;;;;;;;18.28;25.83;94603.25;6101225;23;20361;-82